Time;durP1;ratioP1;P1;durP2;ratioP2;P2;SDS_P1;SDS_P2;PMS_P1;PMS_P2;Temp;Humidity;BMP_temperature;BMP_pressure;BME280_temperature;BME280_humidity;BME280_pressure;Samples;Min_cycle;Max_cycle;Signal;HPM_P1;HPM_P2
2022/10/14 00:02:34;;;;;;;13.18;5.22;;;20.20;64.30;;;;;;6074710;29;20570;-78
2022/10/14 00:05:39;;;;;;;10.18;4.53;;;20.20;64.30;;;;;;6101704;29;20047;-78
2022/10/14 00:08:41;;;;;;;10.82;4.78;;;20.20;64.40;;;;;;6100197;29;20048;-78
2022/10/14 00:11:48;;;;;;;10.63;4.80;;;20.20;64.40;;;;;;6102194;29;20050;-79
2022/10/14 00:14:48;;;;;;;8.48;4.75;;;20.20;64.40;;;;;;6108349;29;20064;-79
2022/10/14 00:17:49;;;;;;;8.60;4.85;;;20.20;64.30;;;;;;6122259;29;20051;-79
2022/10/14 00:20:55;;;;;;;10.15;4.68;;;20.20;64.40;;;;;;6107298;29;20116;-79
2022/10/14 00:23:57;;;;;;;10.77;5.28;;;20.20;64.50;;;;;;6104035;29;20107;-78
2022/10/14 00:26:59;;;;;;;14.52;5.00;;;20.20;64.60;;;;;;6109591;29;20062;-78
2022/10/14 00:30:00;;;;;;;16.38;5.32;;;20.20;64.70;;;;;;6105580;29;20473;-79
2022/10/14 00:33:01;;;;;;;12.57;5.35;;;20.10;64.70;;;;;;6093699;29;20036;-79
2022/10/14 00:36:06;;;;;;;10.38;5.00;;;20.10;64.80;;;;;;6108192;29;20044;-78
2022/10/14 00:39:10;;;;;;;9.73;4.43;;;20.10;64.90;;;;;;6106116;29;20035;-79
2022/10/14 00:42:14;;;;;;;10.25;4.75;;;20.10;64.90;;;;;;6108500;29;20051;-79
2022/10/14 00:45:20;;;;;;;10.10;5.30;;;20.10;65.00;;;;;;6102759;29;20036;-79
2022/10/14 00:48:25;;;;;;;7.15;4.72;;;20.10;65.00;;;;;;6104295;29;20566;-78
2022/10/14 00:51:29;;;;;;;12.52;5.30;;;20.10;65.00;;;;;;6105406;29;20036;-79
2022/10/14 00:54:36;;;;;;;12.10;5.53;;;20.10;65.10;;;;;;6103840;29;20047;-79
2022/10/14 00:57:37;;;;;;;18.25;5.88;;;20.00;65.30;;;;;;6119103;29;20047;-78
2022/10/14 01:00:38;;;;;;;14.25;5.50;;;20.00;65.30;;;;;;6104604;29;20062;-77
2022/10/14 01:03:40;;;;;;;12.70;5.57;;;20.00;65.60;;;;;;6104327;29;20119;-78
2022/10/14 01:07:18;;;;;;;9.75;4.68;;;19.90;65.60;;;;;;6104785;29;20099;-78
2022/10/14 01:10:37;;;;;;;14.50;4.95;;;19.90;65.70;;;;;;6098852;29;20114;-78
2022/10/14 01:13:49;;;;;;;10.75;4.45;;;19.90;65.60;;;;;;6100239;29;20036;-78
2022/10/14 01:17:27;;;;;;;13.20;4.90;;;19.90;65.60;;;;;;6104907;29;20135;-78
2022/10/14 01:20:39;;;;;;;11.25;4.68;;;20.00;65.60;;;;;;6037027;29;20038;-78
2022/10/14 01:24:01;;;;;;;14.32;4.45;;;19.90;65.50;;;;;;6030635;29;20053;-77
2022/10/14 01:27:40;;;;;;;10.75;4.10;;;20.00;65.50;;;;;;6037386;29;20128;-77
2022/10/14 01:31:02;;;;;;;13.27;4.28;;;19.90;65.50;;;;;;6027733;29;20083;-78
2022/10/14 01:34:09;;;;;;;6.55;4.35;;;19.90;65.50;;;;;;6052971;29;20497;-80
2022/10/14 01:37:25;;;;;;;13.88;5.10;;;19.90;66.40;;;;;;6036804;29;22970;-76
2022/10/14 01:40:54;;;;;;;9.00;4.22;;;19.90;65.70;;;;;;6011375;29;20029;-77
2022/10/14 01:44:00;;;;;;;10.98;4.32;;;19.90;65.70;;;;;;6048543;29;20419;-79
2022/10/14 01:47:02;;;;;;;11.45;4.30;;;19.90;65.70;;;;;;6052390;29;20041;-79
2022/10/14 01:50:12;;;;;;;8.93;4.03;;;19.90;65.80;;;;;;6036732;29;20053;-77
2022/10/14 01:53:27;;;;;;;12.68;4.20;;;19.90;65.90;;;;;;6035674;29;20120;-77
2022/10/14 01:56:31;;;;;;;11.77;3.80;;;19.90;66.00;;;;;;6086889;29;20132;-77
2022/10/14 01:59:35;;;;;;;13.77;4.50;;;19.90;66.00;;;;;;6102963;29;20044;-77
2022/10/14 02:02:37;;;;;;;8.73;4.65;;;19.90;65.90;;;;;;6099144;29;20135;-78
2022/10/14 02:06:03;;;;;;;14.18;4.80;;;19.90;65.80;;;;;;6086698;29;20359;-77
2022/10/14 02:09:24;;;;;;;10.43;4.85;;;19.90;65.90;;;;;;6101748;29;20106;-77
2022/10/14 02:12:51;;;;;;;11.98;5.13;;;19.90;65.80;;;;;;6105722;29;20036;-77
2022/10/14 02:16:01;;;;;;;12.35;4.80;;;20.00;65.80;;;;;;6052662;29;20045;-79
2022/10/14 02:19:22;;;;;;;10.98;4.47;;;19.90;65.80;;;;;;6023176;29;20069;-79
2022/10/14 02:22:41;;;;;;;7.68;3.80;;;19.90;66.00;;;;;;6023984;29;20058;-79
2022/10/14 02:25:44;;;;;;;14.35;4.88;;;19.90;66.10;;;;;;6021375;29;20399;-79
2022/10/14 02:28:47;;;;;;;12.32;4.63;;;19.90;66.20;;;;;;6024546;29;20124;-79
2022/10/14 02:31:49;;;;;;;11.35;4.00;;;19.90;67.00;;;;;;6052780;29;20041;-79
2022/10/14 02:34:54;;;;;;;12.45;4.40;;;19.90;66.10;;;;;;6021538;29;22202;-79
2022/10/14 02:37:57;;;;;;;9.68;4.40;;;19.90;66.10;;;;;;6054284;29;20124;-79
2022/10/14 02:41:00;;;;;;;16.45;5.13;;;19.90;66.10;;;;;;6057178;29;20037;-79
2022/10/14 02:44:04;;;;;;;7.60;4.47;;;19.90;66.00;;;;;;6059206;29;20183;-80
2022/10/14 02:47:06;;;;;;;6.60;4.05;;;19.90;66.10;;;;;;6051966;29;20510;-77
2022/10/14 02:50:08;;;;;;;12.18;3.80;;;19.90;66.10;;;;;;6051642;29;20048;-79
2022/10/14 02:53:13;;;;;;;11.02;4.40;;;19.90;66.20;;;;;;6082142;29;20052;-77
2022/10/14 02:56:15;;;;;;;9.73;4.30;;;19.90;66.30;;;;;;6094798;29;20427;-77
2022/10/14 02:59:16;;;;;;;9.10;4.25;;;19.90;66.30;;;;;;6102461;29;20044;-78
2022/10/14 03:02:17;;;;;;;6.85;3.72;;;19.80;66.20;;;;;;6114802;29;20442;-78
2022/10/14 03:05:18;;;;;;;12.18;4.20;;;19.90;66.30;;;;;;6100695;29;20040;-77
2022/10/14 03:08:19;;;;;;;9.43;4.43;;;19.90;66.20;;;;;;6100581;29;20070;-78
2022/10/14 03:11:20;;;;;;;15.10;4.82;;;19.90;66.20;;;;;;6083673;29;20032;-78
2022/10/14 03:14:21;;;;;;;10.98;4.47;;;19.80;66.20;;;;;;6100043;29;20074;-78
2022/10/14 03:17:23;;;;;;;8.93;4.60;;;19.90;66.30;;;;;;6100659;29;20044;-77
2022/10/14 03:20:25;;;;;;;10.55;4.32;;;19.90;66.30;;;;;;6117094;29;20115;-77
2022/10/14 03:23:30;;;;;;;10.52;4.53;;;19.80;66.20;;;;;;6097055;29;20126;-77
2022/10/14 03:26:31;;;;;;;10.02;4.53;;;19.80;66.30;;;;;;6093803;29;20047;-78
2022/10/14 03:29:32;;;;;;;13.48;4.63;;;19.80;66.50;;;;;;6099142;29;20064;-78
2022/10/14 03:32:45;;;;;;;8.23;4.45;;;19.80;66.60;;;;;;6101273;29;20465;-78
2022/10/14 03:36:02;;;;;;;12.30;4.47;;;19.80;66.60;;;;;;6096392;29;20533;-78
2022/10/14 03:39:16;;;;;;;11.68;5.22;;;19.70;66.70;;;;;;6101987;29;20426;-77
2022/10/14 03:42:23;;;;;;;16.15;4.70;;;19.70;66.70;;;;;;6089867;29;20477;-77
2022/10/14 03:45:25;;;;;;;6.93;4.25;;;19.60;66.70;;;;;;6077979;29;20044;-77
2022/10/14 03:48:26;;;;;;;14.32;4.85;;;19.70;66.90;;;;;;6093426;29;20055;-77
2022/10/14 03:51:31;;;;;;;17.60;5.32;;;19.70;67.10;;;;;;6089868;29;20104;-78
2022/10/14 03:54:42;;;;;;;14.77;5.25;;;19.70;67.20;;;;;;6078615;29;20041;-77
2022/10/14 03:57:45;;;;;;;10.30;5.07;;;19.70;67.40;;;;;;6112382;29;20036;-77
2022/10/14 04:00:47;;;;;;;12.73;4.25;;;19.60;67.60;;;;;;6110875;29;20107;-77
2022/10/14 04:04:02;;;;;;;11.60;5.18;;;19.60;67.80;;;;;;6098111;29;20144;-77
2022/10/14 04:07:03;;;;;;;14.40;5.15;;;19.60;67.80;;;;;;6095116;29;20473;-78
2022/10/14 04:10:05;;;;;;;9.27;4.50;;;19.60;67.90;;;;;;6093334;29;20103;-77
2022/10/14 04:13:06;;;;;;;6.57;4.53;;;19.70;68.00;;;;;;6093788;29;20035;-78
2022/10/14 04:16:11;;;;;;;14.38;4.88;;;19.70;67.90;;;;;;6107563;29;20051;-77
2022/10/14 04:19:31;;;;;;;8.85;4.57;;;19.70;67.80;;;;;;6112274;29;20541;-77
2022/10/14 04:22:32;;;;;;;10.68;4.78;;;19.70;67.80;;;;;;6110257;29;20057;-78
2022/10/14 04:25:35;;;;;;;11.48;4.57;;;19.80;67.80;;;;;;6100192;29;20128;-79
2022/10/14 04:28:37;;;;;;;16.73;5.38;;;19.80;67.70;;;;;;6096821;29;20095;-78
2022/10/14 04:31:45;;;;;;;9.18;5.32;;;19.80;67.70;;;;;;6098912;29;20043;-78
2022/10/14 04:34:46;;;;;;;16.42;5.82;;;19.80;67.60;;;;;;6108020;29;20033;-78
2022/10/14 04:37:50;;;;;;;8.68;4.65;;;19.80;67.60;;;;;;6097676;29;20040;-78
2022/10/14 04:40:56;;;;;;;14.70;5.10;;;19.80;67.60;;;;;;6083392;29;20044;-78
2022/10/14 04:43:56;;;;;;;14.15;5.18;;;19.80;67.60;;;;;;6094992;29;20055;-78
2022/10/14 04:47:17;;;;;;;15.68;5.53;;;19.80;67.50;;;;;;6102857;29;20103;-78
2022/10/14 04:50:21;;;;;;;11.23;5.45;;;19.80;67.50;;;;;;6092885;29;20062;-78
2022/10/14 04:53:41;;;;;;;12.30;4.90;;;19.80;67.60;;;;;;6099498;29;20123;-78
2022/10/14 04:57:05;;;;;;;8.32;4.22;;;19.80;67.70;;;;;;6098508;29;20469;-78
2022/10/14 05:00:09;;;;;;;10.32;4.45;;;19.80;67.70;;;;;;6091387;29;20043;-78
2022/10/14 05:03:27;;;;;;;12.25;4.80;;;19.70;67.60;;;;;;6121930;29;20118;-78
2022/10/14 05:06:28;;;;;;;11.98;5.10;;;19.70;67.70;;;;;;6103861;29;20042;-78
2022/10/14 05:09:30;;;;;;;10.82;4.78;;;19.70;67.80;;;;;;6103497;29;20036;-78
2022/10/14 05:12:33;;;;;;;14.07;5.38;;;19.70;67.80;;;;;;6103566;29;20088;-78
2022/10/14 05:15:36;;;;;;;12.00;5.57;;;19.70;67.80;;;;;;6089103;29;20061;-79
2022/10/14 05:18:45;;;;;;;11.88;4.95;;;19.60;67.80;;;;;;6105366;29;20471;-79
2022/10/14 05:21:47;;;;;;;11.10;4.20;;;19.60;67.80;;;;;;6110165;29;20040;-80
2022/10/14 05:24:54;;;;;;;14.30;4.82;;;19.60;68.60;;;;;;6104040;29;20143;-80
2022/10/14 05:27:55;;;;;;;8.20;4.50;;;19.70;67.80;;;;;;6107815;29;20054;-81
2022/10/14 05:30:57;;;;;;;8.45;3.72;;;19.70;67.60;;;;;;6083114;29;20051;-81
2022/10/14 05:33:58;;;;;;;9.02;4.55;;;19.70;67.50;;;;;;6098235;29;20501;-81
2022/10/14 05:37:01;;;;;;;10.50;4.13;;;19.70;67.40;;;;;;6115811;29;20119;-80
2022/10/14 05:40:08;;;;;;;13.05;4.30;;;19.70;67.40;;;;;;6084817;29;20036;-80
2022/10/14 05:43:12;;;;;;;8.25;4.55;;;19.70;67.40;;;;;;6101426;29;20063;-81
2022/10/14 05:46:17;;;;;;;17.83;5.13;;;19.70;67.30;;;;;;6084211;29;20043;-80
2022/10/14 05:49:23;;;;;;;13.73;4.68;;;19.70;67.30;;;;;;6103344;29;20040;-81
2022/10/14 05:52:25;;;;;;;13.00;4.55;;;19.70;67.30;;;;;;6097411;29;20043;-83
2022/10/14 05:55:27;;;;;;;10.20;4.78;;;19.70;67.30;;;;;;6097571;29;20043;-82
2022/10/14 05:58:32;;;;;;;10.30;4.43;;;19.70;67.40;;;;;;6111183;29;20052;-76
2022/10/14 06:01:35;;;;;;;10.73;4.97;;;19.70;67.50;;;;;;6106743;29;20050;-84
2022/10/14 06:04:39;;;;;;;10.07;4.63;;;19.70;67.60;;;;;;6097647;29;20131;-82
2022/10/14 06:07:43;;;;;;;7.00;4.00;;;19.70;67.60;;;;;;6107882;29;20119;-85
2022/10/14 06:10:44;;;;;;;14.82;5.15;;;19.70;67.60;;;;;;6091735;29;20056;-83
2022/10/14 06:13:45;;;;;;;12.70;5.00;;;19.80;67.60;;;;;;6105435;29;20044;-85
2022/10/14 06:16:49;;;;;;;15.95;5.38;;;19.80;67.50;;;;;;6091290;29;20051;-84
2022/10/14 06:19:51;;;;;;;16.13;5.55;;;19.90;67.50;;;;;;6090076;29;20051;-85
2022/10/14 06:22:52;;;;;;;21.90;6.15;;;19.90;68.20;;;;;;6107267;29;20469;-85
2022/10/14 06:25:53;;;;;;;10.70;5.00;;;19.90;67.50;;;;;;6101652;29;20036;-85
2022/10/14 06:28:54;;;;;;;19.65;6.10;;;20.00;67.40;;;;;;6100558;29;20040;-86
2022/10/14 06:31:56;;;;;;;15.18;6.30;;;20.00;67.20;;;;;;6085909;29;20043;-85
2022/10/14 06:34:57;;;;;;;18.27;5.88;;;20.10;67.20;;;;;;6091061;29;20051;-84
2022/10/14 06:37:58;;;;;;;13.60;5.68;;;20.10;67.10;;;;;;6104341;29;20032;-85
2022/10/14 06:40:59;;;;;;;14.30;6.05;;;20.10;66.90;;;;;;6101126;29;20032;-86
2022/10/14 06:44:01;;;;;;;18.90;5.82;;;20.10;66.90;;;;;;6106392;29;20048;-84
2022/10/14 06:47:02;;;;;;;11.05;4.90;;;20.20;67.00;;;;;;6101564;29;20067;-84
2022/10/14 06:50:03;;;;;;;15.77;5.25;;;20.20;67.00;;;;;;6101740;29;20416;-86
2022/10/14 06:53:05;;;;;;;10.95;5.18;;;20.20;66.90;;;;;;6097680;29;20366;-86
2022/10/14 06:56:06;;;;;;;11.18;4.35;;;20.20;66.80;;;;;;6099753;29;20043;-86
2022/10/14 06:59:07;;;;;;;13.88;5.00;;;20.20;66.80;;;;;;6101403;29;20039;-85
2022/10/14 07:02:09;;;;;;;8.48;4.78;;;20.20;66.80;;;;;;6102272;29;20172;-84
2022/10/14 07:05:10;;;;;;;12.40;4.40;;;20.20;66.80;;;;;;6102276;29;20100;-85
2022/10/14 07:08:11;;;;;;;11.98;3.67;;;20.20;66.80;;;;;;6103283;29;20042;-85
2022/10/14 07:11:12;;;;;;;10.88;4.07;;;20.10;66.70;;;;;;6103421;29;20316;-85
2022/10/14 07:14:13;;;;;;;7.13;4.40;;;20.10;66.70;;;;;;6103041;29;20056;-84
2022/10/14 07:17:14;;;;;;;14.75;4.22;;;20.10;66.70;;;;;;6102080;29;20103;-84
2022/10/14 07:20:15;;;;;;;8.73;4.72;;;20.10;66.60;;;;;;6111539;29;20151;-85
2022/10/14 07:23:17;;;;;;;7.13;4.15;;;20.20;66.60;;;;;;6120076;29;20044;-84
2022/10/14 07:26:17;;;;;;;11.77;6.10;;;20.20;66.60;;;;;;6125520;29;20111;-83
2022/10/14 07:29:18;;;;;;;13.40;5.85;;;20.30;66.40;;;;;;6118001;29;20136;-85
2022/10/14 07:32:19;;;;;;;15.13;6.22;;;20.30;66.30;;;;;;6102770;29;20063;-85
2022/10/14 07:35:20;;;;;;;10.50;5.75;;;20.40;66.40;;;;;;6100608;29;20059;-84
2022/10/14 07:38:21;;;;;;;12.77;5.82;;;20.50;66.30;;;;;;6083865;29;20032;-84
2022/10/14 07:41:23;;;;;;;12.63;6.07;;;20.50;66.20;;;;;;6086136;29;20052;-84
2022/10/14 07:44:25;;;;;;;15.02;6.28;;;20.60;66.20;;;;;;6100926;29;20039;-85
2022/10/14 07:47:26;;;;;;;21.23;6.30;;;20.60;66.10;;;;;;6101608;29;20032;-84
2022/10/14 07:50:28;;;;;;;15.00;6.28;;;20.60;66.00;;;;;;6100888;29;20051;-84
2022/10/14 07:53:29;;;;;;;16.20;7.65;;;20.70;66.00;;;;;;6101542;29;20106;-85
2022/10/14 07:56:30;;;;;;;21.10;7.03;;;20.70;65.90;;;;;;6099290;29;20117;-85
2022/10/14 07:59:31;;;;;;;22.40;7.13;;;20.80;65.80;;;;;;6101505;29;20050;-85
2022/10/14 08:02:43;;;;;;;20.52;6.90;;;20.80;65.60;;;;;;6077701;29;20063;-85
2022/10/14 08:05:46;;;;;;;11.65;7.07;;;20.90;65.60;;;;;;6091268;29;20060;-84
2022/10/14 08:08:47;;;;;;;32.03;8.35;;;20.90;65.40;;;;;;6098949;29;20044;-84
2022/10/14 08:11:48;;;;;;;12.27;7.05;;;20.90;65.20;;;;;;6098116;29;20067;-84
2022/10/14 08:14:49;;;;;;;14.90;7.80;;;21.00;65.10;;;;;;6099060;29;20482;-85
2022/10/14 08:17:50;;;;;;;10.43;6.72;;;21.00;65.50;;;;;;6101355;29;20040;-85
2022/10/14 08:20:52;;;;;;;13.52;7.13;;;21.10;64.80;;;;;;6070213;29;20104;-85
2022/10/14 08:23:53;;;;;;;12.50;7.45;;;21.20;64.70;;;;;;6101534;29;20044;-85
2022/10/14 08:26:57;;;;;;;12.45;6.72;;;21.20;64.40;;;;;;6101638;29;20096;-85
2022/10/14 08:29:58;;;;;;;15.48;7.25;;;21.30;64.30;;;;;;6102396;29;20046;-85
2022/10/14 08:32:59;;;;;;;13.15;7.32;;;21.30;64.20;;;;;;6101259;29;20036;-84
2022/10/14 08:36:00;;;;;;;17.90;7.80;;;21.30;63.90;;;;;;6086777;29;20078;-84
2022/10/14 08:39:03;;;;;;;12.75;7.38;;;21.30;63.50;;;;;;6105123;29;20040;-85
2022/10/14 08:42:21;;;;;;;21.75;7.90;;;21.40;63.60;;;;;;6107114;29;20052;-85
2022/10/14 08:45:40;;;;;;;24.35;9.43;;;21.40;63.30;;;;;;6100535;29;20107;-84
2022/10/14 08:48:42;;;;;;;15.45;6.85;;;21.50;63.20;;;;;;6106422;29;20044;-85
2022/10/14 08:51:47;;;;;;;17.75;7.07;;;21.60;62.90;;;;;;6100786;29;20044;-85
2022/10/14 08:54:54;;;;;;;18.42;7.97;;;21.60;62.60;;;;;;6117514;29;20036;-84
2022/10/14 08:58:20;;;;;;;13.85;6.05;;;21.80;62.20;;;;;;6095993;29;20348;-85
2022/10/14 09:01:31;;;;;;;15.95;5.90;;;21.80;61.40;;;;;;6103944;29;20059;-84
2022/10/14 09:04:35;;;;;;;16.30;6.40;;;21.70;60.90;;;;;;6089369;29;20047;-85
2022/10/14 09:07:37;;;;;;;12.07;5.30;;;21.80;60.80;;;;;;6091776;29;20043;-86
2022/10/14 09:10:40;;;;;;;13.90;6.32;;;21.90;60.50;;;;;;6097105;29;20123;-86
2022/10/14 09:13:45;;;;;;;17.67;6.93;;;21.90;60.20;;;;;;6101697;29;20056;-85
2022/10/14 09:16:51;;;;;;;20.42;6.78;;;21.90;60.20;;;;;;6091558;29;20044;-85
2022/10/14 09:20:17;;;;;;;15.40;7.30;;;22.00;60.00;;;;;;6105782;29;20070;-85
2022/10/14 09:23:23;;;;;;;18.25;6.85;;;22.10;59.90;;;;;;6107680;29;20112;-86
2022/10/14 09:26:28;;;;;;;17.48;7.75;;;22.10;59.70;;;;;;6101971;29;20036;-86
2022/10/14 09:29:45;;;;;;;17.40;6.90;;;22.20;59.70;;;;;;6122922;29;20048;-86
2022/10/14 09:32:52;;;;;;;17.58;6.50;;;22.20;59.60;;;;;;6099944;29;20533;-85
2022/10/14 09:35:53;;;;;;;20.85;9.57;;;22.30;59.60;;;;;;6099885;29;20048;-85
2022/10/14 09:38:55;;;;;;;29.27;9.65;;;22.40;59.50;;;;;;6116261;29;20041;-85
2022/10/14 09:41:57;;;;;;;12.07;5.63;;;22.50;59.30;;;;;;6107750;29;20032;-85
2022/10/14 09:45:12;;;;;;;20.55;6.32;;;22.60;59.20;;;;;;6104235;29;20064;-85
2022/10/14 09:48:17;;;;;;;14.95;6.43;;;22.60;59.00;;;;;;6090799;29;20037;-85
2022/10/14 09:51:30;;;;;;;18.38;6.70;;;22.70;58.80;;;;;;6090500;29;20069;-86
2022/10/14 09:54:33;;;;;;;17.13;8.13;;;22.80;58.60;;;;;;6096776;29;20047;-85
2022/10/14 09:57:34;;;;;;;22.05;7.10;;;23.00;58.20;;;;;;6100623;29;20138;-85
2022/10/14 10:00:37;;;;;;;10.20;5.60;;;23.10;58.10;;;;;;6104210;29;20036;-86
2022/10/14 10:03:39;;;;;;;12.50;5.40;;;23.20;57.90;;;;;;6087332;29;20041;-86
2022/10/14 10:06:52;;;;;;;8.15;4.55;;;23.40;57.40;;;;;;6100513;29;20040;-86
2022/10/14 10:09:57;;;;;;;25.13;9.32;;;23.60;56.80;;;;;;6107406;29;20055;-84
2022/10/14 10:12:57;;;;;;;18.92;7.25;;;23.70;56.20;;;;;;6117574;29;20071;-85
2022/10/14 10:16:01;;;;;;;8.95;4.72;;;23.90;56.10;;;;;;6125227;29;20064;-85
2022/10/14 10:19:34;;;;;;;6.95;4.03;;;24.00;55.80;;;;;;6071725;29;20084;-85
2022/10/14 10:22:37;;;;;;;14.43;4.90;;;24.10;55.20;;;;;;6100192;29;20115;-85
2022/10/14 10:25:38;;;;;;;12.30;4.70;;;24.10;54.80;;;;;;6093918;29;20112;-86
2022/10/14 10:28:44;;;;;;;14.23;8.15;;;24.20;54.30;;;;;;6096590;29;20049;-85
2022/10/14 10:32:12;;;;;;;10.68;4.18;;;24.30;54.10;;;;;;6068559;29;22573;-87
2022/10/14 10:35:47;;;;;;;11.52;5.22;;;24.30;54.00;;;;;;6096909;29;20409;-85
2022/10/14 10:38:59;;;;;;;7.57;4.60;;;24.40;53.50;;;;;;6104174;29;20035;-85
2022/10/14 10:42:20;;;;;;;18.10;5.57;;;24.50;53.30;;;;;;6101637;29;20489;-85
2022/10/14 10:45:42;;;;;;;10.50;4.82;;;24.50;53.20;;;;;;6088282;29;20472;-84
2022/10/14 10:48:48;;;;;;;14.98;6.43;;;24.40;52.80;;;;;;6101147;29;20072;-85
2022/10/14 10:52:01;;;;;;;10.85;5.10;;;24.40;53.10;;;;;;6100673;29;20051;-84
2022/10/14 10:55:34;;;;;;;13.65;5.03;;;24.40;53.20;;;;;;6096138;29;20040;-86
2022/10/14 10:58:40;;;;;;;21.85;8.93;;;24.50;53.10;;;;;;6090641;29;20079;-85
2022/10/14 11:01:58;;;;;;;27.00;10.38;;;24.60;52.80;;;;;;6088437;29;20069;-85
2022/10/14 11:05:20;;;;;;;21.15;7.93;;;24.80;52.70;;;;;;6110349;29;20058;-84
2022/10/14 11:12:40;;;;;;;14.13;6.03;;;25.20;52.10;;;;;;6117308;29;20044;-85
2022/10/14 11:15:45;;;;;;;10.05;5.43;;;25.30;51.70;;;;;;6095701;29;20040;-85
2022/10/14 11:18:56;;;;;;;11.93;5.85;;;25.40;51.60;;;;;;6087406;29;20062;-87
2022/10/14 11:22:22;;;;;;;10.43;5.75;;;25.40;51.30;;;;;;6109052;29;20071;-86
2022/10/14 11:25:49;;;;;;;16.50;5.38;;;25.20;51.10;;;;;;6097317;29;20091;-85
2022/10/14 11:29:11;;;;;;;13.95;5.32;;;25.20;51.40;;;;;;6108648;29;20104;-85
2022/10/14 11:32:19;;;;;;;18.83;7.40;;;25.10;51.40;;;;;;6093456;29;20043;-85
2022/10/14 11:35:19;;;;;;;12.03;5.17;;;25.20;51.50;;;;;;6092915;29;20044;-86
2022/10/14 11:39:02;;;;;;;11.57;4.85;;;25.40;51.40;;;;;;6099649;29;20048;-86
2022/10/14 11:42:37;;;;;;;11.18;5.25;;;25.40;51.40;;;;;;6088604;29;20492;-85
2022/10/14 11:45:45;;;;;;;12.05;5.35;;;25.40;51.30;;;;;;6094646;29;20123;-84
2022/10/14 11:48:56;;;;;;;8.48;5.07;;;25.50;51.30;;;;;;6081672;29;20056;-85
2022/10/14 11:52:06;;;;;;;11.13;4.93;;;25.50;51.30;;;;;;6097085;29;20365;-84
2022/10/14 11:55:07;;;;;;;9.25;4.00;;;25.50;51.30;;;;;;6107271;29;20036;-85
2022/10/14 11:58:15;;;;;;;12.43;3.40;;;25.60;51.20;;;;;;6103733;29;20035;-85
2022/10/14 12:01:23;;;;;;;10.57;3.67;;;25.60;51.10;;;;;;6100958;29;20107;-84
2022/10/14 12:04:32;;;;;;;4.13;2.95;;;25.70;50.80;;;;;;6098013;29;20040;-85
2022/10/14 12:08:08;;;;;;;5.00;3.10;;;25.70;50.40;;;;;;6099900;29;20132;-84
2022/10/14 12:11:21;;;;;;;7.03;2.65;;;25.60;50.40;;;;;;6103230;29;20082;-84
2022/10/14 12:14:50;;;;;;;7.72;2.55;;;25.70;50.00;;;;;;6115365;29;20032;-85
2022/10/14 12:17:57;;;;;;;4.53;2.80;;;25.80;49.70;;;;;;6021514;29;20049;-85
2022/10/14 12:21:13;;;;;;;8.95;2.90;;;26.00;49.40;;;;;;6036790;29;20494;-86
2022/10/14 12:24:18;;;;;;;5.60;2.80;;;26.00;49.00;;;;;;6042067;29;20087;-84
2022/10/14 12:27:25;;;;;;;6.68;2.75;;;26.00;48.80;;;;;;6031183;29;20053;-85
2022/10/14 12:30:34;;;;;;;10.05;3.10;;;26.20;48.90;;;;;;6054621;29;20068;-85
2022/10/14 12:34:10;;;;;;;13.07;2.95;;;26.30;48.50;;;;;;6044135;29;20041;-85
2022/10/14 12:37:23;;;;;;;5.28;3.40;;;26.20;48.10;;;;;;6054395;29;20049;-85
2022/10/14 12:40:26;;;;;;;6.05;3.10;;;26.20;48.10;;;;;;6031324;29;20045;-85
2022/10/14 12:43:28;;;;;;;9.65;3.38;;;26.10;48.10;;;;;;6045187;29;20376;-84
2022/10/14 12:46:30;;;;;;;9.10;3.55;;;26.10;48.20;;;;;;6026246;29;20033;-85
2022/10/14 12:49:35;;;;;;;8.05;2.75;;;26.20;48.30;;;;;;6055443;29;20116;-85
2022/10/14 12:52:37;;;;;;;27.67;5.00;;;26.20;48.20;;;;;;6019414;29;20057;-85
2022/10/14 12:55:54;;;;;;;12.48;3.05;;;26.20;48.20;;;;;;6101040;29;20044;-85
2022/10/14 12:59:00;;;;;;;6.65;2.90;;;26.20;48.10;;;;;;6098635;29;20040;-84
2022/10/14 13:02:17;;;;;;;7.25;2.80;;;26.20;48.10;;;;;;6102066;29;20497;-85
2022/10/14 13:05:34;;;;;;;9.20;2.88;;;26.00;48.30;;;;;;6095335;29;20488;-84
2022/10/14 13:08:34;;;;;;;10.48;2.83;;;25.80;48.50;;;;;;6111209;29;20047;-85
2022/10/14 13:11:37;;;;;;;6.90;2.83;;;25.70;48.70;;;;;;6111195;29;20693;-85
2022/10/14 13:14:58;;;;;;;4.65;2.38;;;25.60;49.00;;;;;;6087227;29;20044;-85
2022/10/14 13:18:29;;;;;;;9.25;3.42;;;25.60;49.20;;;;;;6110932;29;20036;-84
2022/10/14 13:21:33;;;;;;;6.07;2.47;;;25.60;49.30;;;;;;6103194;29;20142;-84
2022/10/14 13:24:40;;;;;;;10.43;2.60;;;25.60;49.30;;;;;;6117904;29;20119;-84
2022/10/14 13:28:03;;;;;;;7.40;2.80;;;25.60;49.30;;;;;;6096307;29;20102;-84
2022/10/14 13:31:16;;;;;;;6.28;2.63;;;25.60;49.40;;;;;;6103173;29;20048;-84
2022/10/14 13:34:26;;;;;;;7.07;2.80;;;25.60;49.30;;;;;;6104385;29;20085;-84
2022/10/14 13:37:35;;;;;;;9.50;3.17;;;25.50;49.40;;;;;;6122358;29;20099;-83
2022/10/14 13:40:42;;;;;;;12.73;3.33;;;25.50;49.40;;;;;;6122882;29;20383;-85
2022/10/14 13:43:43;;;;;;;10.82;3.60;;;25.50;49.50;;;;;;6098047;29;20033;-85
2022/10/14 13:46:46;;;;;;;9.68;3.38;;;25.50;49.40;;;;;;6091004;29;20040;-84
2022/10/14 13:49:50;;;;;;;10.30;2.80;;;25.40;49.20;;;;;;6120450;29;20047;-84
2022/10/14 13:52:59;;;;;;;11.35;3.50;;;25.30;49.40;;;;;;6108499;29;20048;-84
2022/10/14 13:56:00;;;;;;;13.00;3.40;;;25.20;49.40;;;;;;6103417;29;20055;-84
2022/10/14 13:59:01;;;;;;;8.43;2.80;;;25.20;49.50;;;;;;6117452;29;20039;-85
2022/10/14 14:02:22;;;;;;;13.75;2.97;;;25.30;49.60;;;;;;6106795;29;20036;-85
2022/10/14 14:05:28;;;;;;;8.65;3.33;;;25.20;49.50;;;;;;6105530;29;20047;-85
2022/10/14 14:08:32;;;;;;;8.35;3.10;;;25.40;50.20;;;;;;6085802;29;20077;-83
2022/10/14 14:11:36;;;;;;;9.02;3.72;;;25.40;49.50;;;;;;6102572;29;20063;-84
2022/10/14 14:14:40;;;;;;;10.27;3.45;;;25.40;49.40;;;;;;6094370;29;20048;-84
2022/10/14 14:17:42;;;;;;;5.32;2.90;;;25.50;49.30;;;;;;6097997;29;20466;-85
2022/10/14 14:20:58;;;;;;;21.85;3.55;;;25.50;49.30;;;;;;6101944;29;20048;-85
2022/10/14 14:24:01;;;;;;;5.45;3.50;;;25.50;49.30;;;;;;6101551;29;20028;-83
2022/10/14 14:27:02;;;;;;;4.13;2.38;;;25.50;49.40;;;;;;6097557;29;20127;-84
2022/10/14 14:30:18;;;;;;;11.23;3.03;;;25.40;49.40;;;;;;6102508;29;20067;-85
2022/10/14 14:33:33;;;;;;;16.20;2.72;;;25.40;49.60;;;;;;6099243;29;20106;-84
2022/10/14 14:36:34;;;;;;;11.88;3.55;;;25.40;49.50;;;;;;6097904;29;20075;-84
2022/10/14 14:39:35;;;;;;;6.30;3.15;;;25.30;49.40;;;;;;6081533;29;20048;-84
2022/10/14 14:42:38;;;;;;;6.78;3.03;;;25.40;49.40;;;;;;6104743;29;20075;-84
2022/10/14 14:45:45;;;;;;;10.98;4.28;;;25.30;49.40;;;;;;6100248;29;20051;-85
2022/10/14 14:48:52;;;;;;;18.27;5.20;;;25.30;49.40;;;;;;6091265;29;20471;-84
2022/10/14 14:51:54;;;;;;;16.80;4.03;;;25.30;49.60;;;;;;6102115;29;20520;-85
2022/10/14 14:54:55;;;;;;;3.92;2.80;;;25.20;49.60;;;;;;6089557;29;20465;-84
2022/10/14 14:58:01;;;;;;;10.45;2.72;;;25.20;49.80;;;;;;6107693;29;20111;-84
2022/10/14 15:01:04;;;;;;;11.13;3.60;;;25.10;50.00;;;;;;6099404;29;20083;-84
2022/10/14 15:04:30;;;;;;;7.35;3.10;;;25.00;50.10;;;;;;6099404;29;20516;-85
2022/10/14 15:07:34;;;;;;;5.83;3.13;;;25.00;50.40;;;;;;6087910;29;20037;-84
2022/10/14 15:10:47;;;;;;;9.90;3.63;;;25.00;50.40;;;;;;6108407;29;20052;-83
2022/10/14 15:13:58;;;;;;;5.88;2.80;;;24.90;50.60;;;;;;6071215;29;20104;-85
2022/10/14 15:16:59;;;;;;;7.95;3.33;;;24.90;50.60;;;;;;6099318;29;20386;-84
2022/10/14 15:20:03;;;;;;;18.13;7.93;;;24.90;50.70;;;;;;6101834;29;20531;-85
2022/10/14 15:23:41;;;;;;;7.90;3.40;;;24.80;50.70;;;;;;6099314;29;20165;-83
2022/10/14 15:26:42;;;;;;;8.63;2.95;;;24.90;50.80;;;;;;6097984;29;20497;-83
2022/10/14 15:29:43;;;;;;;17.75;4.20;;;24.90;50.80;;;;;;6080948;29;20740;-83
2022/10/14 15:32:45;;;;;;;37.72;16.35;;;24.90;50.80;;;;;;6100530;29;20039;-83
2022/10/14 15:35:54;;;;;;;18.80;8.70;;;24.90;50.90;;;;;;6087502;29;20048;-83
2022/10/14 15:38:57;;;;;;;25.88;9.45;;;24.90;51.00;;;;;;6100441;29;20063;-81
2022/10/14 15:42:01;;;;;;;12.63;3.35;;;24.90;51.00;;;;;;6087828;29;20484;-84
2022/10/14 15:45:06;;;;;;;8.75;3.45;;;24.80;51.00;;;;;;6097367;29;20036;-84
2022/10/14 15:48:14;;;;;;;13.35;3.15;;;24.80;51.30;;;;;;6099205;29;20040;-83
2022/10/14 15:51:16;;;;;;;5.75;3.53;;;24.70;51.20;;;;;;6113987;29;20440;-84
2022/10/14 15:54:17;;;;;;;8.20;3.78;;;24.60;51.40;;;;;;6099840;29;20032;-84
2022/10/14 15:57:20;;;;;;;9.07;3.58;;;24.50;51.50;;;;;;6114223;29;20524;-83
2022/10/14 16:00:24;;;;;;;5.50;2.67;;;24.50;51.70;;;;;;6105268;29;20032;-83
2022/10/14 16:03:25;;;;;;;14.02;2.70;;;24.40;51.80;;;;;;6095692;29;20028;-84
2022/10/14 16:06:28;;;;;;;7.13;2.90;;;24.30;51.90;;;;;;6095786;29;20040;-84
2022/10/14 16:09:29;;;;;;;8.18;3.10;;;24.20;52.70;;;;;;6100613;29;20051;-83
2022/10/14 16:12:30;;;;;;;9.90;3.67;;;24.10;52.30;;;;;;6083991;29;20040;-83